Time;durP1;ratioP1;P1;durP2;ratioP2;P2;SDS_P1;SDS_P2;PMS_P1;PMS_P2;Temp;Humidity;BMP_temperature;BMP_pressure;BME280_temperature;BME280_humidity;BME280_pressure;Samples;Min_cycle;Max_cycle;Signal;HPM_P1;HPM_P2
2021/07/21 00:01:42;;;;;;;9.48;4.88;;;24.90;61.90;;;;;;5076534;28;20476;-74
2021/07/21 00:04:07;;;;;;;7.80;4.70;;;24.90;61.90;;;;;;5076590;28;20104;-74
2021/07/21 00:06:33;;;;;;;12.27;5.38;;;25.00;62.00;;;;;;5076513;28;20060;-74
2021/07/21 00:08:59;;;;;;;11.02;4.70;;;24.90;61.80;;;;;;5076659;28;20021;-74
2021/07/21 00:14:19;;;;;;;9.93;4.60;;;24.90;61.40;;;;;;5076081;28;20035;-74
2021/07/21 00:16:52;;;;;;;10.38;5.40;;;24.90;61.40;;;;;;5075509;28;20020;-75
2021/07/21 00:22:02;;;;;;;11.55;5.00;;;24.90;61.10;;;;;;5075823;28;20411;-74
2021/07/21 00:24:28;;;;;;;11.32;5.57;;;24.90;61.20;;;;;;5074394;28;20017;-74
2021/07/21 00:26:54;;;;;;;10.73;6.28;;;25.00;61.20;;;;;;5074920;28;20107;-74
2021/07/21 00:29:19;;;;;;;9.93;5.25;;;25.00;61.10;;;;;;5075825;28;20031;-73
2021/07/21 00:31:45;;;;;;;10.15;5.18;;;24.90;61.00;;;;;;5075679;28;20054;-74
2021/07/21 00:34:11;;;;;;;12.35;5.22;;;25.00;61.00;;;;;;5075598;28;20510;-74
2021/07/21 00:36:36;;;;;;;10.43;5.32;;;24.90;60.90;;;;;;5076204;28;20078;-74
2021/07/21 00:39:04;;;;;;;9.43;5.03;;;24.90;60.80;;;;;;5075977;28;20021;-74
2021/07/21 00:41:30;;;;;;;11.20;5.55;;;24.90;60.90;;;;;;5076044;28;20029;-74
2021/07/21 00:43:55;;;;;;;12.10;5.63;;;24.90;61.00;;;;;;5075542;28;20082;-74
2021/07/21 00:46:21;;;;;;;11.18;5.88;;;24.90;61.20;;;;;;5075727;28;20115;-74
2021/07/21 00:48:46;;;;;;;7.93;5.10;;;24.90;61.40;;;;;;5075834;28;20016;-73
2021/07/21 00:51:12;;;;;;;12.23;5.25;;;24.90;61.40;;;;;;5075684;28;20036;-74
2021/07/21 00:53:39;;;;;;;9.35;5.45;;;24.80;61.40;;;;;;5075595;28;20021;-76
2021/07/21 00:56:05;;;;;;;7.30;4.97;;;24.90;61.40;;;;;;5075493;28;20051;-74
2021/07/21 00:58:31;;;;;;;12.98;5.53;;;24.90;61.50;;;;;;5073886;28;20025;-74
2021/07/21 01:00:57;;;;;;;12.50;5.75;;;24.90;61.40;;;;;;5072462;28;20028;-74
2021/07/21 01:03:23;;;;;;;8.63;5.10;;;24.90;61.40;;;;;;5072472;28;20385;-74
2021/07/21 01:05:49;;;;;;;12.65;5.22;;;24.90;61.30;;;;;;5074563;28;20029;-74
2021/07/21 01:08:15;;;;;;;11.82;5.63;;;24.80;61.30;;;;;;5075163;28;20043;-74
2021/07/21 01:10:47;;;;;;;14.02;6.00;;;24.80;61.40;;;;;;5075113;28;20036;-74
2021/07/21 01:13:25;;;;;;;12.27;5.15;;;24.80;61.50;;;;;;5074781;28;20494;-74
2021/07/21 01:16:04;;;;;;;8.50;5.55;;;24.80;61.50;;;;;;5075294;28;20025;-74
2021/07/21 01:18:40;;;;;;;11.45;5.32;;;24.80;61.80;;;;;;5075154;28;20028;-74
2021/07/21 01:21:16;;;;;;;10.25;5.70;;;24.80;61.90;;;;;;5074726;28;20099;-74
2021/07/21 01:23:48;;;;;;;9.73;5.90;;;24.80;61.80;;;;;;5074725;28;20028;-74
2021/07/21 01:26:42;;;;;;;10.52;5.20;;;24.70;61.90;;;;;;5056708;28;20498;-74
2021/07/21 01:29:09;;;;;;;12.20;6.07;;;24.70;62.00;;;;;;5063286;28;20044;-74
2021/07/21 01:31:39;;;;;;;9.88;5.35;;;24.70;62.10;;;;;;5074516;28;20162;-74
2021/07/21 01:34:08;;;;;;;10.95;5.68;;;24.70;62.10;;;;;;5074523;28;20068;-74
2021/07/21 01:36:39;;;;;;;13.75;5.57;;;24.70;62.10;;;;;;5074591;28;20073;-73
2021/07/21 01:39:10;;;;;;;9.60;5.22;;;24.60;62.20;;;;;;5074926;28;20028;-74
2021/07/21 01:41:39;;;;;;;8.77;5.50;;;24.60;62.20;;;;;;5074292;28;20100;-74
2021/07/21 01:44:12;;;;;;;11.00;6.55;;;24.60;62.30;;;;;;5074221;28;20271;-74
2021/07/21 01:46:40;;;;;;;10.00;5.55;;;24.60;63.00;;;;;;5074594;28;20035;-74
2021/07/21 01:49:10;;;;;;;13.52;5.40;;;24.50;62.30;;;;;;5074680;28;20036;-74
2021/07/21 01:51:36;;;;;;;10.07;5.43;;;24.50;62.50;;;;;;5074182;28;20107;-74
2021/07/21 01:54:03;;;;;;;9.32;5.40;;;24.60;62.70;;;;;;5074512;28;20028;-74
2021/07/21 01:56:32;;;;;;;11.65;5.15;;;24.50;62.70;;;;;;5074497;28;20028;-73
2021/07/21 01:58:59;;;;;;;14.57;5.60;;;24.60;63.10;;;;;;5056578;28;20021;-74
2021/07/21 02:01:29;;;;;;;9.38;5.32;;;24.50;63.10;;;;;;5074383;28;20064;-74
2021/07/21 02:04:00;;;;;;;8.48;5.07;;;24.50;63.20;;;;;;5074521;28;20384;-74
2021/07/21 02:06:27;;;;;;;9.02;4.93;;;24.60;63.60;;;;;;5073913;28;20016;-73
2021/07/21 02:08:57;;;;;;;8.20;4.90;;;24.50;63.70;;;;;;5073753;28;20016;-74
2021/07/21 02:11:24;;;;;;;10.95;5.40;;;24.50;63.80;;;;;;5074353;28;20385;-74
2021/07/21 02:13:55;;;;;;;10.00;4.75;;;24.50;63.70;;;;;;5073879;28;20423;-74
2021/07/21 02:16:21;;;;;;;13.93;5.57;;;24.50;63.70;;;;;;5073901;28;20039;-74
2021/07/21 02:18:47;;;;;;;10.15;5.60;;;24.40;63.50;;;;;;5073878;28;20028;-74
2021/07/21 02:21:13;;;;;;;11.38;6.25;;;24.40;63.70;;;;;;5073992;28;20024;-74
2021/07/21 02:23:39;;;;;;;9.48;5.70;;;24.40;63.00;;;;;;5073935;28;20028;-74
2021/07/21 02:26:06;;;;;;;10.60;5.30;;;24.30;62.50;;;;;;5073645;28;20024;-74
2021/07/21 02:28:33;;;;;;;8.27;5.57;;;24.30;62.60;;;;;;5073863;28;20025;-73
2021/07/21 02:31:07;;;;;;;12.88;5.20;;;24.30;62.90;;;;;;5073682;28;20044;-73
2021/07/21 02:33:42;;;;;;;10.50;5.65;;;24.30;63.20;;;;;;5073626;28;20032;-73
2021/07/21 02:36:07;;;;;;;14.02;5.70;;;24.30;63.50;;;;;;5073526;28;20177;-73
2021/07/21 02:38:33;;;;;;;10.50;5.15;;;24.30;63.80;;;;;;5073604;28;20052;-73
2021/07/21 02:40:59;;;;;;;13.65;5.50;;;24.30;64.10;;;;;;5073438;28;20097;-74
2021/07/21 02:43:25;;;;;;;16.65;5.55;;;24.30;64.50;;;;;;5073323;28;20046;-74
2021/07/21 02:45:51;;;;;;;15.05;5.70;;;24.30;64.60;;;;;;5072514;28;20098;-74
2021/07/21 02:48:17;;;;;;;11.80;5.72;;;24.20;64.60;;;;;;5073347;28;20034;-73
2021/07/21 02:50:47;;;;;;;10.65;5.53;;;24.20;64.60;;;;;;5073418;28;20096;-74
2021/07/21 02:53:20;;;;;;;7.50;5.63;;;24.20;64.50;;;;;;5073395;28;20037;-74
2021/07/21 02:55:54;;;;;;;11.68;6.18;;;24.20;64.80;;;;;;5073182;28;20055;-73
2021/07/21 02:58:22;;;;;;;10.80;5.68;;;24.20;65.00;;;;;;5073104;28;20042;-75
2021/07/21 03:00:49;;;;;;;11.45;5.18;;;24.20;65.00;;;;;;5055214;28;20025;-73
2021/07/21 03:03:17;;;;;;;13.15;5.70;;;24.20;65.00;;;;;;5072049;28;20395;-74
2021/07/21 03:05:45;;;;;;;13.13;5.80;;;24.10;64.80;;;;;;5071611;28;20017;-75
2021/07/21 03:08:12;;;;;;;9.90;5.95;;;24.10;64.50;;;;;;5073481;28;20032;-73
2021/07/21 03:10:42;;;;;;;11.38;5.60;;;24.10;64.10;;;;;;5073216;28;20029;-73
2021/07/21 03:13:11;;;;;;;12.70;5.63;;;24.10;63.90;;;;;;5073318;28;20039;-74
2021/07/21 03:15:40;;;;;;;9.73;6.00;;;24.20;64.00;;;;;;5072951;28;20511;-73
2021/07/21 03:18:11;;;;;;;8.18;5.38;;;24.10;64.00;;;;;;5072998;28;20024;-73
2021/07/21 03:20:40;;;;;;;10.93;5.90;;;24.20;63.90;;;;;;5073083;28;20036;-74
2021/07/21 03:23:07;;;;;;;10.48;5.13;;;24.10;63.50;;;;;;5073227;28;20025;-73
2021/07/21 03:25:34;;;;;;;17.45;6.97;;;24.10;63.40;;;;;;5072972;28;20154;-74
2021/07/21 03:28:02;;;;;;;11.07;6.25;;;24.00;63.30;;;;;;5072719;28;20524;-73
2021/07/21 03:30:29;;;;;;;10.43;6.47;;;24.00;63.20;;;;;;5073059;28;20032;-73
2021/07/21 03:32:56;;;;;;;11.15;6.43;;;24.00;63.00;;;;;;5072898;28;20077;-74
2021/07/21 03:35:27;;;;;;;15.10;6.60;;;24.00;62.60;;;;;;5072661;28;20016;-73
2021/07/21 03:37:53;;;;;;;20.90;6.45;;;24.00;62.50;;;;;;5073124;28;20072;-73
2021/07/21 03:40:20;;;;;;;18.73;6.43;;;23.90;62.40;;;;;;5054833;28;20078;-73
2021/07/21 03:42:50;;;;;;;13.40;6.10;;;23.90;62.30;;;;;;5072394;28;20024;-74
2021/07/21 03:45:16;;;;;;;10.52;6.57;;;23.90;62.30;;;;;;5071138;28;20041;-74
2021/07/21 03:47:43;;;;;;;9.02;6.32;;;24.00;62.40;;;;;;5071506;28;20107;-74
2021/07/21 03:50:10;;;;;;;11.25;5.93;;;23.90;62.40;;;;;;5072268;28;20020;-74
2021/07/21 03:52:39;;;;;;;8.50;6.30;;;23.90;62.30;;;;;;5071490;28;20032;-74
2021/07/21 03:55:06;;;;;;;13.40;6.18;;;23.90;62.10;;;;;;5071732;28;20032;-73
2021/07/21 03:57:32;;;;;;;12.70;6.78;;;23.90;62.10;;;;;;5072723;28;20044;-73
2021/07/21 03:59:58;;;;;;;13.02;6.20;;;23.90;61.90;;;;;;5072771;28;20228;-73
2021/07/21 04:02:25;;;;;;;12.23;6.70;;;23.90;61.70;;;;;;5072625;28;20084;-73
2021/07/21 04:04:53;;;;;;;13.63;6.72;;;23.90;61.40;;;;;;5072357;28;20032;-73
2021/07/21 04:07:19;;;;;;;11.15;7.20;;;23.90;61.30;;;;;;5072652;28;20025;-73
2021/07/21 04:09:48;;;;;;;8.63;6.95;;;23.90;60.90;;;;;;5072796;28;20379;-72
2021/07/21 04:12:15;;;;;;;14.07;6.53;;;23.90;60.50;;;;;;5054039;28;20071;-71
2021/07/21 04:14:43;;;;;;;8.20;6.57;;;23.90;60.40;;;;;;5071974;28;20405;-72
2021/07/21 04:17:09;;;;;;;17.55;7.45;;;23.90;60.40;;;;;;5072060;28;20028;-71
2021/07/21 04:19:36;;;;;;;12.00;7.22;;;23.90;60.40;;;;;;5072335;28;20095;-71
2021/07/21 04:22:02;;;;;;;9.63;6.78;;;23.90;60.40;;;;;;5071291;28;20028;-71
2021/07/21 04:24:28;;;;;;;9.50;7.05;;;23.90;60.40;;;;;;5071864;28;20032;-71
2021/07/21 04:26:55;;;;;;;13.02;7.30;;;23.90;60.30;;;;;;5072099;28;20024;-71
2021/07/21 04:29:25;;;;;;;12.90;7.70;;;23.90;60.10;;;;;;5072193;28;20447;-71
2021/07/21 04:31:51;;;;;;;12.40;6.80;;;23.90;59.90;;;;;;5071963;28;20033;-71
2021/07/21 04:34:18;;;;;;;11.68;6.75;;;23.90;59.70;;;;;;5072053;28;20099;-71
2021/07/21 04:36:45;;;;;;;10.25;7.28;;;23.90;59.70;;;;;;5072398;28;20074;-71
2021/07/21 04:39:13;;;;;;;12.30;6.68;;;24.00;59.70;;;;;;5072161;28;20074;-71
2021/07/21 04:41:39;;;;;;;10.63;6.57;;;24.00;59.50;;;;;;5072124;28;20512;-71
2021/07/21 04:44:05;;;;;;;9.57;6.90;;;24.00;59.40;;;;;;5072378;28;20113;-71
2021/07/21 04:46:32;;;;;;;11.57;6.70;;;24.00;59.30;;;;;;5072881;28;20538;-71
2021/07/21 04:48:59;;;;;;;9.60;7.10;;;24.10;59.90;;;;;;5075896;28;20020;-71
2021/07/21 04:51:25;;;;;;;14.10;7.63;;;24.00;59.20;;;;;;5075979;28;20527;-71
2021/07/21 04:53:56;;;;;;;12.43;7.53;;;24.10;59.00;;;;;;5075741;28;20031;-71
2021/07/21 04:56:22;;;;;;;10.03;7.10;;;24.10;59.20;;;;;;5076076;28;20033;-71
2021/07/21 04:58:48;;;;;;;10.73;7.38;;;24.10;59.40;;;;;;5075846;28;20028;-71
2021/07/21 05:01:15;;;;;;;13.02;6.93;;;24.10;59.20;;;;;;5075519;28;20499;-71
2021/07/21 05:03:41;;;;;;;12.23;7.63;;;24.10;59.00;;;;;;5075371;28;20377;-71
2021/07/21 05:06:07;;;;;;;9.93;7.13;;;24.10;59.10;;;;;;5075671;28;20025;-71
2021/07/21 05:08:33;;;;;;;18.15;7.43;;;24.10;59.10;;;;;;5075560;28;20515;-71
2021/07/21 05:10:59;;;;;;;13.13;7.50;;;24.10;59.10;;;;;;5075295;28;20056;-71
2021/07/21 05:13:25;;;;;;;13.63;7.78;;;24.10;58.80;;;;;;5075324;28;20032;-71
2021/07/21 05:15:50;;;;;;;13.02;7.07;;;24.10;58.70;;;;;;5075243;28;20029;-72
2021/07/21 05:18:16;;;;;;;14.57;7.35;;;24.10;58.80;;;;;;5075276;28;20490;-72
2021/07/21 05:20:42;;;;;;;11.98;7.43;;;24.10;59.00;;;;;;5075487;28;20500;-72
2021/07/21 05:23:08;;;;;;;13.98;7.55;;;24.00;58.90;;;;;;5075269;28;20025;-73
2021/07/21 05:25:37;;;;;;;12.18;7.35;;;24.10;58.80;;;;;;5075292;28;20039;-73
2021/07/21 05:28:05;;;;;;;14.05;7.70;;;24.10;58.70;;;;;;5056405;28;20472;-72
2021/07/21 05:30:30;;;;;;;10.30;7.43;;;24.10;58.70;;;;;;5073495;28;20028;-72
2021/07/21 05:32:56;;;;;;;12.45;7.45;;;24.10;58.80;;;;;;5073164;28;20418;-72
2021/07/21 05:35:22;;;;;;;15.23;7.55;;;24.10;58.70;;;;;;5074928;28;20417;-72
2021/07/21 05:37:48;;;;;;;14.00;7.93;;;24.20;58.70;;;;;;5075089;28;20538;-72
2021/07/21 05:40:13;;;;;;;14.55;7.90;;;24.20;58.70;;;;;;5074798;28;20366;-72
2021/07/21 05:42:39;;;;;;;12.73;7.68;;;24.20;58.60;;;;;;5074578;28;20043;-72
2021/07/21 05:45:05;;;;;;;12.05;7.85;;;24.20;58.70;;;;;;5074354;28;20052;-72
2021/07/21 05:47:31;;;;;;;21.15;7.00;;;24.30;58.40;;;;;;5074740;28;20020;-72
2021/07/21 05:49:56;;;;;;;11.40;7.95;;;24.30;58.20;;;;;;5074561;28;20029;-72
2021/07/21 05:52:22;;;;;;;16.00;8.35;;;24.30;57.90;;;;;;5074459;28;20033;-72
2021/07/21 05:54:48;;;;;;;13.43;8.70;;;24.30;57.90;;;;;;5074539;28;20124;-72
2021/07/21 05:57:14;;;;;;;13.90;7.97;;;24.30;58.00;;;;;;5074201;28;20025;-72
2021/07/21 05:59:39;;;;;;;14.75;8.40;;;24.40;57.70;;;;;;5074443;28;20468;-72
2021/07/21 06:02:07;;;;;;;16.27;8.50;;;24.40;57.30;;;;;;5074745;28;20056;-72
2021/07/21 06:04:33;;;;;;;11.43;8.00;;;24.40;57.20;;;;;;5074208;28;20081;-72
2021/07/21 06:07:00;;;;;;;14.60;8.30;;;24.40;57.00;;;;;;5074028;28;20111;-72
2021/07/21 06:09:26;;;;;;;12.20;8.30;;;24.40;56.90;;;;;;5074283;28;20028;-69
2021/07/21 06:11:52;;;;;;;16.05;8.43;;;24.50;56.80;;;;;;5074223;28;20420;-74
2021/07/21 06:14:18;;;;;;;12.25;8.05;;;24.50;56.70;;;;;;5073999;28;20031;-74
2021/07/21 06:16:44;;;;;;;20.83;8.75;;;24.60;56.30;;;;;;5073864;28;20028;-69
2021/07/21 06:19:10;;;;;;;14.88;8.30;;;24.60;56.10;;;;;;5073867;28;20021;-70
2021/07/21 06:21:35;;;;;;;13.30;8.60;;;24.60;56.00;;;;;;5073934;28;20016;-71
2021/07/21 06:24:01;;;;;;;15.43;9.05;;;24.70;55.90;;;;;;5074008;28;20032;-71
2021/07/21 06:26:27;;;;;;;15.75;8.57;;;24.70;55.50;;;;;;5073396;28;20396;-70
2021/07/21 06:28:53;;;;;;;16.00;8.98;;;24.80;55.20;;;;;;5073582;28;20032;-73
2021/07/21 06:31:19;;;;;;;10.82;7.82;;;24.80;54.90;;;;;;5073427;28;20383;-73
2021/07/21 06:33:44;;;;;;;15.55;9.52;;;24.80;54.80;;;;;;5073293;28;20024;-75
2021/07/21 06:36:10;;;;;;;16.33;9.23;;;24.80;54.70;;;;;;5073855;28;20025;-75
2021/07/21 06:38:36;;;;;;;9.07;7.80;;;24.90;55.60;;;;;;5073584;28;20028;-72
2021/07/21 06:41:02;;;;;;;12.00;8.73;;;24.90;54.90;;;;;;5073401;28;20111;-75
2021/07/21 06:43:28;;;;;;;13.23;9.05;;;25.00;55.20;;;;;;5088214;22;20044;-69
2021/07/21 06:45:54;;;;;;;14.43;8.30;;;25.00;54.40;;;;;;5073147;28;20461;-69
2021/07/21 06:48:20;;;;;;;12.23;8.55;;;25.10;54.70;;;;;;5073444;28;20021;-70
2021/07/21 06:50:46;;;;;;;14.80;8.68;;;25.10;54.40;;;;;;5073445;28;20039;-71
2021/07/21 06:53:11;;;;;;;15.15;8.10;;;25.10;54.10;;;;;;5055309;28;20027;-74
2021/07/21 06:55:37;;;;;;;12.90;8.20;;;25.20;53.80;;;;;;5071832;28;20504;-71
2021/07/21 06:58:03;;;;;;;11.00;8.68;;;25.20;53.60;;;;;;5070840;28;20092;-70
2021/07/21 07:00:30;;;;;;;15.32;8.20;;;25.20;53.60;;;;;;5071623;28;20033;-70
2021/07/21 07:02:56;;;;;;;15.25;8.77;;;25.30;53.50;;;;;;5073211;28;20103;-70
2021/07/21 07:05:21;;;;;;;12.32;9.13;;;25.30;53.10;;;;;;5073404;28;20108;-70
2021/07/21 07:07:47;;;;;;;13.07;8.80;;;25.30;53.50;;;;;;5073206;28;20041;-71
2021/07/21 07:10:14;;;;;;;14.10;8.75;;;25.30;53.20;;;;;;5072685;28;20460;-70
2021/07/21 07:12:39;;;;;;;12.80;9.10;;;25.40;53.10;;;;;;5073124;28;20036;-70
2021/07/21 07:15:06;;;;;;;11.65;8.45;;;25.50;52.90;;;;;;5055481;28;20134;-70
2021/07/21 07:17:33;;;;;;;10.73;8.40;;;25.50;53.00;;;;;;5073238;28;20472;-71
2021/07/21 07:19:59;;;;;;;11.52;8.80;;;;;;;;;;5072934;28;20031;-70
2021/07/21 07:22:25;;;;;;;12.77;8.32;;;25.60;52.40;;;;;;5073228;28;20054;-71
2021/07/21 07:24:50;;;;;;;14.60;8.48;;;25.60;52.80;;;;;;5073011;28;20396;-70
2021/07/21 07:27:16;;;;;;;11.55;8.05;;;25.70;53.00;;;;;;5073058;28;20032;-72
2021/07/21 07:29:42;;;;;;;11.80;8.70;;;25.70;53.00;;;;;;5073077;28;20425;-71
2021/07/21 07:32:08;;;;;;;15.55;8.82;;;25.70;52.60;;;;;;5073009;28;20536;-71
2021/07/21 07:34:34;;;;;;;16.05;9.27;;;25.80;52.30;;;;;;5073089;28;20027;-72
2021/07/21 07:36:59;;;;;;;13.70;8.65;;;25.90;56.60;;;;;;5072835;28;20028;-70
2021/07/21 07:39:25;;;;;;;11.60;8.35;;;25.90;52.70;;;;;;5072940;28;20389;-72
2021/07/21 07:41:51;;;;;;;18.63;9.00;;;25.90;52.50;;;;;;5073066;28;20029;-71
2021/07/21 07:44:17;;;;;;;40.47;13.65;;;26.00;53.80;;;;;;5072706;28;20037;-71
2021/07/21 07:46:43;;;;;;;16.30;8.63;;;26.00;54.60;;;;;;5073019;28;20052;-72
2021/07/21 07:49:10;;;;;;;12.82;9.27;;;26.00;54.40;;;;;;5073037;28;20102;-71
2021/07/21 07:51:36;;;;;;;14.48;8.68;;;26.00;54.30;;;;;;5072993;28;20037;-71
2021/07/21 07:54:02;;;;;;;17.88;9.23;;;26.10;54.00;;;;;;5072743;28;20028;-71
2021/07/21 07:56:29;;;;;;;13.15;9.35;;;26.10;54.00;;;;;;5072832;28;20484;-72
2021/07/21 07:58:55;;;;;;;15.85;8.88;;;;;;;;;;5072946;28;20021;-72
2021/07/21 08:01:21;;;;;;;15.02;8.88;;;26.10;60.90;;;;;;5072772;28;20056;-72
2021/07/21 08:03:47;;;;;;;15.55;8.98;;;26.30;60.70;;;;;;5072709;28;20048;-69
2021/07/21 08:06:12;;;;;;;11.45;8.15;;;26.30;62.90;;;;;;5072472;28;20033;-69
2021/07/21 08:08:38;;;;;;;12.18;9.13;;;26.40;69.30;;;;;;5072555;28;20029;-73
2021/07/21 08:11:05;;;;;;;21.33;8.82;;;26.40;54.00;;;;;;5072652;28;20037;-69
2021/07/21 08:13:32;;;;;;;10.48;8.30;;;26.40;53.00;;;;;;5072540;28;20025;-69
2021/07/21 08:15:58;;;;;;;18.00;8.88;;;26.50;53.40;;;;;;5072746;28;20068;-69
2021/07/21 08:18:24;;;;;;;13.98;8.10;;;26.50;53.30;;;;;;5072446;28;20028;-69
2021/07/21 08:20:50;;;;;;;12.90;9.45;;;26.50;53.20;;;;;;5073850;28;20082;-70
2021/07/21 08:23:16;;;;;;;10.45;8.10;;;26.60;52.90;;;;;;5076341;28;20036;-73
2021/07/21 08:25:43;;;;;;;9.88;8.13;;;26.70;52.80;;;;;;5076321;28;20016;-70
2021/07/21 08:28:11;;;;;;;12.15;8.52;;;26.70;52.50;;;;;;5076403;28;20086;-70
2021/07/21 08:30:37;;;;;;;9.10;7.95;;;26.80;51.80;;;;;;5075960;28;20025;-70
2021/07/21 08:33:03;;;;;;;15.93;8.60;;;26.80;52.00;;;;;;5076394;28;20032;-72
2021/07/21 08:35:30;;;;;;;13.05;8.73;;;26.90;51.60;;;;;;5076185;28;20393;-69
2021/07/21 08:37:57;;;;;;;12.15;8.35;;;26.90;51.10;;;;;;5076103;28;20056;-69
2021/07/21 08:40:24;;;;;;;13.13;8.90;;;;;;;;;;5076476;28;20032;-72
2021/07/21 08:42:51;;;;;;;16.13;8.50;;;27.00;50.10;;;;;;5076033;28;20035;-69
2021/07/21 08:45:17;;;;;;;11.15;8.13;;;27.00;49.90;;;;;;5075759;28;20048;-70
2021/07/21 08:47:43;;;;;;;12.95;8.18;;;27.00;50.70;;;;;;5075803;28;20028;-69
2021/07/21 08:50:10;;;;;;;17.90;9.43;;;27.00;50.80;;;;;;5075786;28;20081;-69
2021/07/21 08:52:36;;;;;;;8.93;8.02;;;27.00;50.70;;;;;;5075581;28;20454;-69
2021/07/21 08:55:05;;;;;;;11.02;7.90;;;27.10;50.60;;;;;;5075561;28;20055;-69
2021/07/21 08:57:32;;;;;;;11.70;8.48;;;27.10;50.30;;;;;;5075684;28;20469;-69
2021/07/21 09:00:06;;;;;;;11.00;8.25;;;27.20;49.80;;;;;;5075812;28;20066;-70
2021/07/21 09:02:33;;;;;;;10.20;8.57;;;27.30;49.80;;;;;;5075750;28;20028;-71
2021/07/21 09:04:58;;;;;;;13.82;7.85;;;27.30;49.60;;;;;;5075647;28;20028;-70
2021/07/21 09:07:24;;;;;;;16.42;7.72;;;27.40;49.10;;;;;;5057565;28;20043;-72
2021/07/21 09:09:50;;;;;;;11.25;8.13;;;27.40;49.10;;;;;;5075504;28;20074;-70
2021/07/21 09:12:17;;;;;;;16.35;8.93;;;27.50;49.30;;;;;;5075459;28;20037;-70
2021/07/21 09:14:43;;;;;;;10.63;7.97;;;27.50;49.10;;;;;;5075580;28;20107;-70
2021/07/21 09:17:15;;;;;;;15.18;8.88;;;27.60;49.10;;;;;;5075435;28;20024;-70
2021/07/21 09:19:43;;;;;;;14.32;8.38;;;27.60;49.20;;;;;;5075470;28;20048;-69
2021/07/21 09:22:35;;;;;;;17.40;8.38;;;27.70;49.10;;;;;;5075359;28;20027;-70
2021/07/21 09:25:23;;;;;;;13.65;7.50;;;27.70;49.00;;;;;;5075092;28;20028;-69
2021/07/21 09:27:52;;;;;;;11.15;7.85;;;27.80;49.40;;;;;;5075126;28;20388;-68
2021/07/21 09:30:23;;;;;;;13.95;8.52;;;27.80;49.40;;;;;;5075223;28;20028;-69
2021/07/21 09:33:17;;;;;;;12.15;7.40;;;27.90;49.30;;;;;;5074526;28;20506;-72
2021/07/21 09:35:45;;;;;;;12.00;7.90;;;28.00;48.70;;;;;;5075022;28;20019;-70
2021/07/21 09:38:17;;;;;;;11.63;7.45;;;28.00;48.10;;;;;;5074904;28;20028;-72
2021/07/21 09:40:47;;;;;;;17.65;8.05;;;28.10;47.70;;;;;;5075111;28;20052;-68
2021/07/21 09:43:15;;;;;;;11.60;7.75;;;28.10;47.70;;;;;;5074869;28;20074;-72
2021/07/21 09:45:42;;;;;;;12.73;7.82;;;28.20;47.80;;;;;;5074696;28;20530;-69
2021/07/21 09:48:10;;;;;;;13.35;8.25;;;28.20;48.00;;;;;;5074543;28;20043;-68
2021/07/21 09:50:40;;;;;;;15.50;7.93;;;28.30;47.60;;;;;;5074747;28;20021;-69
2021/07/21 09:53:12;;;;;;;14.02;7.80;;;28.40;47.20;;;;;;5074888;28;20366;-68
2021/07/21 09:55:40;;;;;;;14.15;7.93;;;28.40;46.70;;;;;;5074810;28;20538;-70
2021/07/21 09:58:24;;;;;;;10.95;7.65;;;28.40;47.70;;;;;;5074655;28;20055;-73
2021/07/21 10:00:50;;;;;;;16.17;7.95;;;28.50;47.00;;;;;;5074703;28;20021;-69
2021/07/21 10:03:19;;;;;;;10.52;8.30;;;28.50;47.00;;;;;;5074755;28;20054;-69
2021/07/21 10:06:04;;;;;;;12.38;7.65;;;28.50;47.30;;;;;;5074540;28;20449;-68
2021/07/21 10:08:40;;;;;;;11.20;7.30;;;28.60;46.90;;;;;;5074396;28;20028;-72
2021/07/21 10:11:29;;;;;;;15.63;7.78;;;28.70;47.10;;;;;;5074389;28;20035;-68
2021/07/21 10:14:03;;;;;;;10.52;7.55;;;28.80;47.30;;;;;;5074053;28;20059;-68
2021/07/21 10:16:43;;;;;;;12.18;7.75;;;28.90;46.90;;;;;;5074093;28;20025;-68
2021/07/21 10:19:15;;;;;;;16.10;8.02;;;29.00;47.40;;;;;;5074327;28;20025;-69
2021/07/21 10:21:44;;;;;;;12.80;7.85;;;29.00;47.00;;;;;;5074164;28;20503;-68
2021/07/21 10:24:10;;;;;;;12.63;7.63;;;29.10;47.00;;;;;;5073940;28;20069;-69
2021/07/21 10:26:38;;;;;;;10.88;7.65;;;29.10;47.10;;;;;;5074243;28;20048;-69
2021/07/21 10:29:06;;;;;;;11.35;7.95;;;29.10;46.80;;;;;;5074075;28;20020;-68
2021/07/21 10:31:33;;;;;;;10.45;7.63;;;29.20;47.20;;;;;;5073857;28;20059;-72
2021/07/21 10:33:59;;;;;;;10.27;7.55;;;29.20;47.00;;;;;;5073892;28;20025;-68
2021/07/21 10:36:26;;;;;;;13.27;7.82;;;29.30;47.20;;;;;;5073812;28;20039;-69
2021/07/21 10:38:52;;;;;;;18.15;7.70;;;29.30;46.40;;;;;;5074193;28;20013;-69
2021/07/21 10:41:19;;;;;;;9.73;7.28;;;29.40;45.90;;;;;;5073765;28;20040;-70
2021/07/21 10:43:53;;;;;;;9.65;7.10;;;29.40;46.10;;;;;;5072995;28;20043;-69
2021/07/21 10:46:31;;;;;;;16.63;7.72;;;29.40;46.70;;;;;;5073739;28;20496;-71
2021/07/21 10:49:48;;;;;;;14.35;7.65;;;29.40;46.70;;;;;;5073713;28;20056;-68
2021/07/21 11:00:22;;;;;;;13.00;7.13;;;29.60;46.90;;;;;;5074125;28;20036;-68
2021/07/21 11:02:49;;;;;;;15.90;8.02;;;29.70;45.70;;;;;;5073575;28;20074;-70
2021/07/21 11:05:33;;;;;;;9.70;7.20;;;29.70;45.80;;;;;;5073454;28;20039;-69
2021/07/21 11:08:02;;;;;;;11.13;7.85;;;29.80;45.70;;;;;;5073355;28;20476;-69
2021/07/21 11:10:40;;;;;;;10.15;7.45;;;29.80;45.70;;;;;;5073276;28;20476;-68
2021/07/21 11:13:27;;;;;;;17.83;7.80;;;29.80;45.90;;;;;;5073293;28;20060;-69
2021/07/21 11:15:53;;;;;;;9.93;6.88;;;29.80;45.30;;;;;;5059023;28;20167;-71
2021/07/21 11:18:22;;;;;;;13.15;6.93;;;29.80;45.80;;;;;;5073354;28;20068;-68
2021/07/21 11:21:04;;;;;;;14.05;7.20;;;;;;;;;;5073785;28;20075;-69
2021/07/21 11:23:58;;;;;;;15.88;6.95;;;29.80;44.90;;;;;;5055158;28;20024;-68
2021/07/21 11:26:34;;;;;;;14.95;7.50;;;;;;;;;;5073084;28;20056;-68
2021/07/21 11:29:29;;;;;;;11.75;7.10;;;29.90;65.60;;;;;;5072953;28;20080;-72
2021/07/21 11:31:55;;;;;;;10.20;7.38;;;;;;;;;;5073300;28;20048;-68
2021/07/21 11:34:37;;;;;;;15.95;7.97;;;30.00;49.00;;;;;;5072842;28;20029;-68
2021/07/21 11:37:15;;;;;;;14.85;6.82;;;30.00;50.70;;;;;;5072994;28;20491;-68
2021/07/21 11:39:51;;;;;;;10.40;6.75;;;30.00;50.30;;;;;;5072973;28;20013;-68
2021/07/21 11:42:23;;;;;;;13.18;7.10;;;30.00;50.70;;;;;;5072876;28;20036;-69
2021/07/21 11:44:50;;;;;;;13.75;6.45;;;30.00;51.80;;;;;;5072676;28;20047;-69
2021/07/21 11:47:18;;;;;;;17.85;7.03;;;;;;;;;;5072797;28;20021;-73
2021/07/21 11:49:49;;;;;;;11.07;6.53;;;30.10;56.60;;;;;;5072809;28;20017;-69
2021/07/21 11:52:18;;;;;;;11.90;6.63;;;30.10;44.90;;;;;;5072637;28;20044;-73
2021/07/21 11:54:44;;;;;;;8.93;6.82;;;30.10;45.60;;;;;;5072565;28;20069;-71
2021/07/21 11:57:10;;;;;;;11.13;6.95;;;30.20;46.30;;;;;;5076357;28;20028;-68
2021/07/21 11:59:40;;;;;;;14.85;7.38;;;30.30;46.10;;;;;;5076954;28;20051;-68
2021/07/21 12:02:06;;;;;;;13.70;7.38;;;30.30;45.50;;;;;;5076703;28;20035;-69
2021/07/21 12:04:32;;;;;;;17.27;7.90;;;30.40;45.60;;;;;;5076632;28;20028;-68
2021/07/21 12:06:58;;;;;;;12.32;7.13;;;30.40;46.00;;;;;;5076669;28;20492;-68
2021/07/21 12:09:29;;;;;;;9.27;7.20;;;30.50;45.80;;;;;;5076796;28;20472;-68
2021/07/21 12:12:05;;;;;;;12.20;6.60;;;30.60;45.50;;;;;;5076617;28;20037;-70
2021/07/21 12:14:31;;;;;;;14.15;6.93;;;30.60;45.40;;;;;;5076849;28;20375;-68
2021/07/21 12:17:08;;;;;;;12.68;6.88;;;30.60;45.60;;;;;;5076326;28;20025;-68
2021/07/21 12:19:35;;;;;;;13.80;7.43;;;30.70;46.00;;;;;;5076364;28;20025;-68
2021/07/21 12:22:08;;;;;;;14.27;7.63;;;30.70;45.20;;;;;;5076522;28;20020;-68
2021/07/21 12:24:36;;;;;;;13.25;7.45;;;30.80;45.40;;;;;;5076335;28;20025;-69
2021/07/21 12:27:03;;;;;;;17.40;7.25;;;30.80;45.40;;;;;;5076486;28;20031;-69
2021/07/21 12:29:29;;;;;;;13.85;7.40;;;30.90;45.10;;;;;;5076223;28;20063;-69
2021/07/21 12:32:14;;;;;;;10.65;7.45;;;30.90;44.60;;;;;;5076581;28;20060;-68
2021/07/21 12:34:42;;;;;;;10.10;7.57;;;30.90;44.80;;;;;;5076418;28;20104;-68
2021/07/21 12:37:18;;;;;;;10.25;7.20;;;31.00;45.00;;;;;;5076097;28;20453;-70
2021/07/21 12:39:46;;;;;;;8.32;6.95;;;31.00;45.30;;;;;;5076292;28;20109;-69
2021/07/21 12:42:17;;;;;;;11.80;7.32;;;31.00;45.10;;;;;;5076097;28;20112;-68
2021/07/21 12:44:45;;;;;;;16.70;7.43;;;31.00;44.20;;;;;;5075865;28;20400;-68
2021/07/21 12:47:14;;;;;;;11.60;7.13;;;31.00;44.50;;;;;;5076232;28;20023;-68
2021/07/21 12:49:42;;;;;;;11.23;7.22;;;31.00;44.30;;;;;;5075744;28;20469;-72
2021/07/21 12:52:12;;;;;;;17.40;7.28;;;31.00;43.70;;;;;;5075799;28;20078;-71
2021/07/21 12:54:38;;;;;;;16.25;7.18;;;31.00;43.50;;;;;;5075904;28;20028;-71
2021/07/21 12:57:04;;;;;;;12.23;7.55;;;31.00;43.80;;;;;;5075916;28;20533;-71
2021/07/21 12:59:37;;;;;;;10.82;6.97;;;31.00;43.60;;;;;;5075852;28;20028;-69
2021/07/21 13:02:11;;;;;;;9.60;7.10;;;31.00;44.40;;;;;;5075522;28;20030;-68